Time;durP1;ratioP1;P1;durP2;ratioP2;P2;SDS_P1;SDS_P2;PMS_P1;PMS_P2;Temp;Humidity;BMP_temperature;BMP_pressure;BME280_temperature;BME280_humidity;BME280_pressure;Samples;Min_cycle;Max_cycle;Signal;HPM_P1;HPM_P2
2023/04/29 00:00:45;;;;;;;7.03;4.83;;;;;;;;;;4356721;32;318144;-79
2023/04/29 00:03:13;;;;;;;7.70;4.57;;;;;;;;;;4358725;32;316606;-80
2023/04/29 00:05:39;;;;;;;11.23;4.37;;;;;;;;;;4369148;32;317262;-80
2023/04/29 00:08:06;;;;;;;8.50;5.07;;;;;;;;;;4381203;32;318774;-79
2023/04/29 00:10:34;;;;;;;8.43;4.97;;;;;;;;;;4370097;32;317219;-79
2023/04/29 00:13:00;;;;;;;9.63;5.00;;;;;;;;;;4380834;32;317058;-80
2023/04/29 00:15:27;;;;;;;6.93;4.80;;;;;;;;;;4382485;32;327955;-78
2023/04/29 00:17:55;;;;;;;9.27;5.30;;;;;;;;;;4372694;32;317037;-79
2023/04/29 00:20:22;;;;;;;8.60;5.40;;;;;;;;;;4380583;32;316794;-81
2023/04/29 00:22:49;;;;;;;13.30;6.00;;;;;;;;;;4372625;32;316725;-82
2023/04/29 00:25:16;;;;;;;7.77;4.87;;;;;;;;;;4382102;32;318163;-81
2023/04/29 00:27:42;;;;;;;19.13;10.77;;;;;;;;;;4372349;32;317615;-79
2023/04/29 00:30:10;;;;;;;23.77;10.90;;;;;;;;;;4380947;32;318553;-81
2023/04/29 00:32:36;;;;;;;21.93;8.73;;;;;;;;;;4372282;32;319261;-80
2023/04/29 00:35:05;;;;;;;15.17;10.00;;;;;;;;;;4381216;32;318279;-81
2023/04/29 00:37:33;;;;;;;17.67;10.67;;;;;;;;;;4369005;32;343640;-79
2023/04/29 00:40:00;;;;;;;25.10;10.70;;;;;;;;;;4367740;32;318549;-80
2023/04/29 00:42:27;;;;;;;22.17;10.13;;;;;;;;;;4381539;32;319234;-81
2023/04/29 00:44:54;;;;;;;20.83;8.97;;;;;;;;;;4363810;32;319314;-79
2023/04/29 00:47:21;;;;;;;18.83;9.90;;;;;;;;;;4382732;32;318231;-79
2023/04/29 00:49:48;;;;;;;16.27;10.17;;;;;;;;;;4369715;32;318866;-78
2023/04/29 00:52:17;;;;;;;29.17;14.63;;;;;;;;;;4372592;32;319434;-78
2023/04/29 00:54:44;;;;;;;29.97;16.60;;;;;;;;;;4358936;32;318701;-78
2023/04/29 00:57:12;;;;;;;37.83;19.57;;;;;;;;;;4382276;32;355157;-79
2023/04/29 00:59:39;;;;;;;44.63;21.27;;;;;;;;;;4375296;32;319692;-79
2023/04/29 01:02:06;;;;;;;40.47;19.40;;;;;;;;;;4383955;32;318748;-77
2023/04/29 01:04:33;;;;;;;35.00;19.53;;;;;;;;;;4368075;32;319027;-78
2023/04/29 01:07:09;;;;;;;32.10;16.93;;;;;;;;;;4367806;32;319195;-79
2023/04/29 01:09:55;;;;;;;39.43;18.97;;;;;;;;;;4359078;32;319328;-78
2023/04/29 01:12:33;;;;;;;41.10;18.03;;;;;;;;;;4368599;32;318704;-78
2023/04/29 01:15:05;;;;;;;27.77;13.50;;;;;;;;;;4356211;32;420048;-80
2023/04/29 01:17:37;;;;;;;27.53;12.90;;;;;;;;;;4359302;32;318735;-82
2023/04/29 01:20:05;;;;;;;28.13;13.13;;;;;;;;;;4370192;32;319316;-78
2023/04/29 01:22:32;;;;;;;30.17;16.13;;;;;;;;;;4355747;32;319116;-79
2023/04/29 01:25:00;;;;;;;28.23;16.10;;;;;;;;;;4371930;32;319184;-78
2023/04/29 01:27:31;;;;;;;33.23;16.67;;;;;;;;;;4381290;32;318224;-80
2023/04/29 01:30:03;;;;;;;26.97;14.97;;;;;;;;;;4363555;32;418363;-80
2023/04/29 01:32:41;;;;;;;30.37;12.00;;;;;;;;;;4384504;32;318557;-79
2023/04/29 01:35:15;;;;;;;23.97;10.87;;;;;;;;;;4375118;32;419806;-78
2023/04/29 01:37:52;;;;;;;18.60;10.97;;;;;;;;;;4389029;32;352854;-79
2023/04/29 01:40:25;;;;;;;24.63;12.57;;;;;;;;;;4399729;32;319550;-79
2023/04/29 01:42:59;;;;;;;23.13;12.13;;;;;;;;;;4378500;32;318561;-80
2023/04/29 01:45:28;;;;;;;15.67;8.90;;;;;;;;;;4384774;32;318744;-79
2023/04/29 01:47:57;;;;;;;16.00;9.20;;;;;;;;;;4378611;32;318006;-79
2023/04/29 01:50:26;;;;;;;21.50;9.23;;;;;;;;;;4399787;32;318285;-79
2023/04/29 01:52:53;;;;;;;16.77;9.50;;;;;;;;;;4390164;32;318570;-79
2023/04/29 01:55:21;;;;;;;13.60;8.60;;;;;;;;;;4395325;32;317702;-82
2023/04/29 01:57:48;;;;;;;16.73;9.03;;;;;;;;;;4376114;32;354098;-79
2023/04/29 02:00:15;;;;;;;18.03;8.80;;;;;;;;;;4384708;32;318171;-79
2023/04/29 02:02:45;;;;;;;15.07;7.33;;;;;;;;;;4374060;32;318058;-80
2023/04/29 02:05:13;;;;;;;18.27;9.13;;;;;;;;;;4374013;32;317740;-80
2023/04/29 02:07:40;;;;;;;17.43;9.23;;;;;;;;;;4355894;32;317752;-82
2023/04/29 02:10:08;;;;;;;19.83;10.27;;;;;;;;;;4373990;32;323973;-81
2023/04/29 02:12:36;;;;;;;20.10;10.83;;;;;;;;;;4358962;32;319532;-79
2023/04/29 02:15:04;;;;;;;17.00;9.30;;;;;;;;;;4369355;32;319029;-79
2023/04/29 02:17:33;;;;;;;23.37;10.73;;;;;;;;;;4367015;32;317733;-80
2023/04/29 02:20:00;;;;;;;19.30;11.50;;;;;;;;;;4368663;32;319591;-79
2023/04/29 02:22:27;;;;;;;31.27;13.93;;;;;;;;;;4367724;32;319426;-81
2023/04/29 02:24:53;;;;;;;22.63;13.00;;;;;;;;;;4358388;32;319739;-79
2023/04/29 02:27:21;;;;;;;26.10;12.27;;;;;;;;;;4383518;32;318697;-80
2023/04/29 02:29:50;;;;;;;17.47;9.87;;;;;;;;;;4360373;32;319631;-81
2023/04/29 02:32:18;;;;;;;15.90;9.33;;;;;;;;;;4384502;32;318437;-80
2023/04/29 02:34:46;;;;;;;15.53;9.13;;;;;;;;;;4373345;32;318350;-80
2023/04/29 02:37:13;;;;;;;13.40;8.60;;;;;;;;;;4393805;32;318501;-80
2023/04/29 02:39:40;;;;;;;11.70;7.70;;;;;;;;;;4387733;32;318176;-79
2023/04/29 02:42:06;;;;;;;15.63;8.00;;;;;;;;;;4394866;32;318510;-79
2023/04/29 02:44:33;;;;;;;10.83;7.40;;;;;;;;;;4371288;32;320771;-79
2023/04/29 02:47:02;;;;;;;14.80;6.63;;;;;;;;;;4383434;32;317633;-79
2023/04/29 02:49:28;;;;;;;12.37;8.07;;;;;;;;;;4383112;32;317842;-80
2023/04/29 02:51:55;;;;;;;11.90;8.07;;;;;;;;;;4366918;32;317518;-80
2023/04/29 02:54:22;;;;;;;14.13;6.70;;;;;;;;;;4382958;32;318415;-84
2023/04/29 02:56:49;;;;;;;17.50;8.37;;;;;;;;;;4371881;32;318150;-80
2023/04/29 02:59:15;;;;;;;15.73;7.30;;;;;;;;;;4382456;32;317550;-80
2023/04/29 03:01:42;;;;;;;12.03;6.93;;;;;;;;;;4373877;32;318275;-82
2023/04/29 03:04:10;;;;;;;15.60;7.03;;;;;;;;;;4380302;32;317905;-82
2023/04/29 03:06:39;;;;;;;11.43;6.87;;;;;;;;;;4358747;32;318031;-79
2023/04/29 03:09:05;;;;;;;15.23;7.07;;;;;;;;;;4367443;32;317555;-81
2023/04/29 03:11:32;;;;;;;13.07;7.67;;;;;;;;;;4362278;32;318202;-79
2023/04/29 03:14:00;;;;;;;15.30;8.10;;;;;;;;;;4380030;32;317710;-81
2023/04/29 03:16:30;;;;;;;12.63;8.37;;;;;;;;;;4370941;32;317669;-80
2023/04/29 03:18:56;;;;;;;17.13;7.60;;;;;;;;;;4349084;32;418053;-81
2023/04/29 03:21:26;;;;;;;21.87;8.20;;;;;;;;;;4379252;32;318192;-80
2023/04/29 03:23:53;;;;;;;16.50;9.90;;;;;;;;;;4373076;32;318343;-80
2023/04/29 03:26:21;;;;;;;17.43;9.77;;;;;;;;;;4379756;32;318416;-81
2023/04/29 03:28:50;;;;;;;16.37;9.83;;;;;;;;;;4373063;32;318276;-80
2023/04/29 03:31:19;;;;;;;23.60;9.67;;;;;;;;;;4377993;32;317461;-81
2023/04/29 03:33:46;;;;;;;15.90;9.00;;;;;;;;;;4358416;32;318324;-81
2023/04/29 03:36:13;;;;;;;17.73;10.07;;;;;;;;;;4380477;32;318198;-80
2023/04/29 03:38:41;;;;;;;21.60;9.97;;;;;;;;;;4386759;32;319215;-79
2023/04/29 03:41:09;;;;;;;17.50;9.40;;;;;;;;;;4389930;32;317666;-81
2023/04/29 03:43:35;;;;;;;22.60;10.60;;;;;;;;;;4371721;32;318794;-81
2023/04/29 03:46:02;;;;;;;19.33;10.23;;;;;;;;;;4382688;32;318810;-80
2023/04/29 03:48:30;;;;;;;23.23;9.80;;;;;;;;;;4382850;32;318783;-81
2023/04/29 03:50:56;;;;;;;22.60;9.63;;;;;;;;;;4348019;32;416634;-80
2023/04/29 03:53:25;;;;;;;17.17;8.93;;;;;;;;;;4381803;32;318185;-81
2023/04/29 03:55:53;;;;;;;20.73;9.83;;;;;;;;;;4368488;32;318323;-81
2023/04/29 03:58:20;;;;;;;22.43;10.27;;;;;;;;;;4381143;32;318004;-80
2023/04/29 04:00:47;;;;;;;15.73;9.57;;;;;;;;;;4372694;32;319331;-80
2023/04/29 04:03:14;;;;;;;16.63;9.73;;;;;;;;;;4382656;32;317858;-80
2023/04/29 04:05:41;;;;;;;21.93;10.43;;;;;;;;;;4359538;32;317665;-80
2023/04/29 04:08:08;;;;;;;18.27;11.53;;;;;;;;;;4367541;32;319796;-80
2023/04/29 04:10:35;;;;;;;22.30;11.20;;;;;;;;;;4355560;32;318913;-80
2023/04/29 04:13:05;;;;;;;18.77;12.30;;;;;;;;;;4365786;32;318709;-80
2023/04/29 04:15:32;;;;;;;19.63;11.23;;;;;;;;;;4357464;32;318653;-79
2023/04/29 04:17:59;;;;;;;20.77;11.57;;;;;;;;;;4367271;32;318837;-79
2023/04/29 04:20:26;;;;;;;19.43;11.73;;;;;;;;;;4367544;32;319827;-80
2023/04/29 04:22:53;;;;;;;20.37;11.73;;;;;;;;;;4357150;32;319389;-79
2023/04/29 04:25:20;;;;;;;19.63;12.47;;;;;;;;;;4368470;32;318626;-78
2023/04/29 04:27:47;;;;;;;25.40;13.90;;;;;;;;;;4363799;32;318584;-81
2023/04/29 04:30:15;;;;;;;35.40;13.40;;;;;;;;;;4380629;32;319124;-80
2023/04/29 04:32:42;;;;;;;20.40;12.40;;;;;;;;;;4372231;32;319163;-83
2023/04/29 04:35:09;;;;;;;25.83;14.60;;;;;;;;;;4382398;32;318793;-79
2023/04/29 04:37:36;;;;;;;29.70;14.47;;;;;;;;;;4371129;32;319434;-80
2023/04/29 04:40:03;;;;;;;25.00;13.70;;;;;;;;;;4381301;32;319378;-79
2023/04/29 04:42:29;;;;;;;20.73;15.23;;;;;;;;;;4380821;32;354720;-79
2023/04/29 04:44:56;;;;;;;23.40;15.00;;;;;;;;;;4372666;32;319549;-81
2023/04/29 04:47:24;;;;;;;20.63;14.40;;;;;;;;;;4382297;32;317814;-80
2023/04/29 04:49:52;;;;;;;30.27;16.43;;;;;;;;;;4372152;32;318637;-79
2023/04/29 04:52:20;;;;;;;27.60;16.73;;;;;;;;;;4382284;32;319324;-79
2023/04/29 04:54:47;;;;;;;29.40;16.80;;;;;;;;;;4367591;32;319429;-81
2023/04/29 04:57:13;;;;;;;25.87;16.03;;;;;;;;;;4378824;32;319597;-80
2023/04/29 04:59:40;;;;;;;34.03;15.37;;;;;;;;;;4371886;32;319117;-80
2023/04/29 05:02:08;;;;;;;32.57;14.97;;;;;;;;;;4381981;32;318630;-79
2023/04/29 05:04:36;;;;;;;26.27;13.80;;;;;;;;;;4370332;32;320823;-79
2023/04/29 05:07:03;;;;;;;37.77;18.27;;;;;;;;;;4381531;32;319185;-79
2023/04/29 05:09:30;;;;;;;38.80;18.20;;;;;;;;;;4381029;32;319242;-80
2023/04/29 05:11:58;;;;;;;36.60;20.03;;;;;;;;;;4367877;32;418182;-82
2023/04/29 05:14:25;;;;;;;46.40;26.97;;;;;;;;;;4381245;32;344185;-79
2023/04/29 05:16:52;;;;;;;50.17;27.53;;;;;;;;;;4365023;32;319446;-80
2023/04/29 05:19:19;;;;;;;46.90;29.33;;;;;;;;;;4389651;32;319279;-79
2023/04/29 05:21:47;;;;;;;23.93;15.90;;;;;;;;;;4369802;32;319303;-79
2023/04/29 05:24:14;;;;;;;25.77;15.33;;;;;;;;;;4379969;32;319299;-81
2023/04/29 05:26:42;;;;;;;23.97;15.67;;;;;;;;;;4360762;32;319760;-80
2023/04/29 05:29:09;;;;;;;28.60;15.53;;;;;;;;;;4368765;32;319232;-79
2023/04/29 05:31:36;;;;;;;26.80;16.43;;;;;;;;;;4369543;32;319366;-79
2023/04/29 05:34:05;;;;;;;24.90;15.07;;;;;;;;;;4380001;32;318727;-78
2023/04/29 05:36:33;;;;;;;29.53;15.80;;;;;;;;;;4374666;32;352374;-79
2023/04/29 05:39:03;;;;;;;23.70;15.27;;;;;;;;;;4395711;32;318574;-82
2023/04/29 05:41:30;;;;;;;26.27;15.73;;;;;;;;;;4399152;32;318706;-83
2023/04/29 05:43:57;;;;;;;27.47;14.53;;;;;;;;;;4371132;32;419175;-83
2023/04/29 05:46:24;;;;;;;23.10;13.50;;;;;;;;;;4383509;32;318461;-81
2023/04/29 05:48:51;;;;;;;31.30;13.23;;;;;;;;;;4373104;32;319476;-80
2023/04/29 05:51:17;;;;;;;21.63;11.03;;;;;;;;;;4384427;32;318481;-81
2023/04/29 05:53:44;;;;;;;24.90;12.20;;;;;;;;;;4373256;32;319352;-82
2023/04/29 05:56:12;;;;;;;28.03;11.40;;;;;;;;;;4379446;32;319570;-83
2023/04/29 05:58:39;;;;;;;32.73;12.13;;;;;;;;;;4372321;32;319386;-82
2023/04/29 06:01:06;;;;;;;23.63;12.30;;;;;;;;;;4381559;32;319543;-82
2023/04/29 06:03:33;;;;;;;15.47;11.27;;;;;;;;;;4356975;32;319696;-83
2023/04/29 06:06:00;;;;;;;24.30;11.70;;;;;;;;;;4381595;32;319416;-82
2023/04/29 06:08:32;;;;;;;21.30;10.97;;;;;;;;;;4381478;32;318649;-84
2023/04/29 06:11:00;;;;;;;15.40;11.03;;;;;;;;;;4367975;32;417998;-84
2023/04/29 06:13:29;;;;;;;25.03;15.47;;;;;;;;;;4384414;32;319574;-82
2023/04/29 06:15:55;;;;;;;29.67;16.80;;;;;;;;;;4373671;32;338555;-81
2023/04/29 06:18:22;;;;;;;20.93;13.40;;;;;;;;;;4383063;32;319321;-82
2023/04/29 06:20:49;;;;;;;25.83;13.90;;;;;;;;;;4370142;32;319317;-80
2023/04/29 06:23:16;;;;;;;25.73;14.90;;;;;;;;;;4381118;32;318690;-79
2023/04/29 06:25:43;;;;;;;33.90;25.13;;;;;;;;;;4371459;32;318689;-80
2023/04/29 06:28:09;;;;;;;15.33;10.67;;;;;;;;;;4383067;32;318730;-82
2023/04/29 06:30:37;;;;;;;18.80;10.70;;;;;;;;;;4372220;32;319361;-82
2023/04/29 06:33:04;;;;;;;22.13;14.67;;;;;;;;;;4383618;32;319361;-83
2023/04/29 06:35:31;;;;;;;18.00;10.43;;;;;;;;;;4373292;32;318846;-82
2023/04/29 06:37:58;;;;;;;22.63;11.63;;;;;;;;;;4396907;32;318690;-81
2023/04/29 06:40:25;;;;;;;15.53;10.60;;;;;;;;;;4396378;32;319050;-82
2023/04/29 06:42:52;;;;;;;14.93;7.93;;;;;;;;;;4380740;32;319723;-81
2023/04/29 06:45:19;;;;;;;11.63;7.70;;;;;;;;;;4382791;32;318733;-82
2023/04/29 06:47:47;;;;;;;15.63;8.13;;;;;;;;;;4373555;32;318229;-82
2023/04/29 06:50:14;;;;;;;16.23;9.40;;;;;;;;;;4383942;32;318235;-81
2023/04/29 06:52:41;;;;;;;22.27;8.77;;;;;;;;;;4373368;32;318567;-81
2023/04/29 06:55:09;;;;;;;20.70;9.67;;;;;;;;;;4382702;32;318232;-79
2023/04/29 06:57:37;;;;;;;17.27;10.17;;;;;;;;;;4374085;32;318371;-81
2023/04/29 07:00:04;;;;;;;19.47;8.93;;;;;;;;;;4383707;32;319791;-83
2023/04/29 07:02:31;;;;;;;19.40;8.53;;;;;;;;;;4374587;32;318521;-81
2023/04/29 07:04:59;;;;;;;14.37;9.83;;;;;;;;;;4373704;32;318020;-79
2023/04/29 07:07:26;;;;;;;16.37;9.37;;;;;;;;;;4371615;32;317708;-77
2023/04/29 07:09:53;;;;;;;21.70;9.13;;;;;;;;;;4357506;32;318221;-78
2023/04/29 07:12:20;;;;;;;16.90;6.67;;;;;;;;;;4367183;32;318432;-78
2023/04/29 07:14:47;;;;;;;10.07;6.57;;;;;;;;;;4356750;32;335738;-78
2023/04/29 07:17:13;;;;;;;16.80;7.90;;;;;;;;;;4368010;32;318592;-78
2023/04/29 07:19:40;;;;;;;18.73;6.67;;;;;;;;;;4358003;32;317656;-78
2023/04/29 07:22:08;;;;;;;19.63;8.87;;;;;;;;;;4362418;32;318536;-78
2023/04/29 07:24:35;;;;;;;26.23;11.60;;;;;;;;;;4358421;32;317758;-78
2023/04/29 07:27:02;;;;;;;20.47;9.17;;;;;;;;;;4377829;32;319689;-78
2023/04/29 07:29:30;;;;;;;14.27;8.27;;;;;;;;;;4381938;32;322841;-78
2023/04/29 07:31:57;;;;;;;12.67;6.87;;;;;;;;;;4372873;32;330823;-80
2023/04/29 07:34:24;;;;;;;15.07;8.07;;;;;;;;;;4382040;32;317990;-78
2023/04/29 07:36:51;;;;;;;17.70;8.87;;;;;;;;;;4378978;32;332779;-79
2023/04/29 07:39:19;;;;;;;19.70;10.10;;;;;;;;;;4372945;32;317767;-78
2023/04/29 07:41:46;;;;;;;18.67;7.83;;;;;;;;;;4364572;32;319961;-79
2023/04/29 07:44:12;;;;;;;19.17;8.83;;;;;;;;;;4372180;32;317711;-80
2023/04/29 07:46:39;;;;;;;16.50;8.77;;;;;;;;;;4359150;32;318383;-81
2023/04/29 07:49:06;;;;;;;24.63;8.77;;;;;;;;;;4369182;32;318283;-81
2023/04/29 07:51:33;;;;;;;18.73;9.27;;;;;;;;;;4360694;32;318689;-79
2023/04/29 07:54:02;;;;;;;16.40;7.63;;;;;;;;;;4375516;32;317781;-82
2023/04/29 07:56:30;;;;;;;21.20;8.00;;;;;;;;;;4376653;32;318525;-80
2023/04/29 07:58:56;;;;;;;17.10;7.50;;;;;;;;;;4364197;32;416993;-80
2023/04/29 08:01:23;;;;;;;14.00;7.00;;;;;;;;;;4378366;32;318396;-80
2023/04/29 08:03:50;;;;;;;17.73;7.50;;;;;;;;;;4368776;32;318083;-80
2023/04/29 08:06:19;;;;;;;12.33;6.90;;;;;;;;;;4374764;32;318252;-82
2023/04/29 08:08:46;;;;;;;19.10;8.00;;;;;;;;;;4359483;32;318101;-82
2023/04/29 08:11:17;;;;;;;14.30;8.13;;;;;;;;;;4378040;32;323559;-80
2023/04/29 08:13:46;;;;;;;22.07;8.40;;;;;;;;;;4366366;32;318623;-80
2023/04/29 08:16:13;;;;;;;20.37;9.33;;;;;;;;;;4375360;32;318019;-80
2023/04/29 08:18:40;;;;;;;30.10;10.07;;;;;;;;;;4367807;32;318338;-82
2023/04/29 08:21:08;;;;;;;19.20;9.03;;;;;;;;;;4374344;32;319406;-83
2023/04/29 08:23:34;;;;;;;13.80;9.50;;;;;;;;;;4370460;32;318319;-80
2023/04/29 08:26:02;;;;;;;23.93;8.97;;;;;;;;;;4379839;32;318371;-80
2023/04/29 08:28:29;;;;;;;14.70;7.37;;;;;;;;;;4371830;32;318643;-81
2023/04/29 08:30:57;;;;;;;18.47;9.17;;;;;;;;;;4381701;32;318510;-81
2023/04/29 08:33:24;;;;;;;21.73;8.80;;;;;;;;;;4372268;32;317944;-82
2023/04/29 08:35:57;;;;;;;18.87;8.40;;;;;;;;;;4381537;32;318529;-81
2023/04/29 08:38:26;;;;;;;14.87;8.70;;;;;;;;;;4372759;32;319253;-82
2023/04/29 08:40:53;;;;;;;18.37;8.87;;;;;;;;;;4379214;32;317514;-81
2023/04/29 08:43:21;;;;;;;17.50;9.50;;;;;;;;;;4368535;32;323447;-82
2023/04/29 08:45:49;;;;;;;23.63;9.37;;;;;;;;;;4382044;32;318467;-82
2023/04/29 08:48:18;;;;;;;18.27;9.63;;;;;;;;;;4377014;32;318544;-81
2023/04/29 08:50:45;;;;;;;16.77;9.87;;;;;;;;;;4368497;32;417288;-82
2023/04/29 08:53:14;;;;;;;19.17;10.93;;;;;;;;;;4367204;32;318582;-81
2023/04/29 08:55:42;;;;;;;23.87;11.37;;;;;;;;;;4366715;32;318853;-80
2023/04/29 08:58:10;;;;;;;18.73;10.60;;;;;;;;;;4374991;32;319450;-82
2023/04/29 09:00:38;;;;;;;17.00;10.77;;;;;;;;;;4371164;32;319954;-81
2023/04/29 09:03:13;;;;;;;15.47;8.97;;;;;;;;;;4378815;32;319238;-82
2023/04/29 09:05:43;;;;;;;17.83;7.37;;;;;;;;;;4369400;32;318300;-82
2023/04/29 09:08:12;;;;;;;11.80;5.43;;;;;;;;;;4370594;32;318256;-80
2023/04/29 09:10:41;;;;;;;15.67;5.43;;;;;;;;;;4358286;32;322192;-80
2023/04/29 09:13:09;;;;;;;7.80;4.33;;;;;;;;;;4381118;32;318430;-80
2023/04/29 09:15:39;;;;;;;5.73;4.07;;;;;;;;;;4366684;32;317202;-81
2023/04/29 09:18:07;;;;;;;7.73;3.73;;;;;;;;;;4377810;32;315687;-81
2023/04/29 09:20:34;;;;;;;8.83;4.53;;;;;;;;;;4372793;32;334588;-80
2023/04/29 09:23:04;;;;;;;7.87;4.53;;;;;;;;;;4382248;32;343584;-80
2023/04/29 09:25:31;;;;;;;6.50;3.60;;;;;;;;;;4373660;32;317696;-80
2023/04/29 09:27:58;;;;;;;14.00;4.10;;;;;;;;;;4384088;32;317102;-80
2023/04/29 09:30:25;;;;;;;13.90;4.60;;;;;;;;;;4375380;32;318743;-80
2023/04/29 09:33:06;;;;;;;10.57;4.40;;;;;;;;;;4382180;32;318494;-80
2023/04/29 09:35:33;;;;;;;9.07;4.30;;;;;;;;;;4374245;32;317438;-79
2023/04/29 09:38:12;;;;;;;8.63;3.87;;;;;;;;;;4380468;32;317081;-80
2023/04/29 09:40:39;;;;;;;9.30;4.77;;;;;;;;;;4367876;32;317897;-79
2023/04/29 09:43:13;;;;;;;12.07;5.03;;;;;;;;;;4381687;32;317391;-81
2023/04/29 09:45:41;;;;;;;10.87;5.03;;;;;;;;;;4369193;32;330416;-79
2023/04/29 09:48:09;;;;;;;7.87;4.40;;;;;;;;;;4375322;32;318145;-80
2023/04/29 09:50:37;;;;;;;13.73;5.23;;;;;;;;;;4361215;32;316260;-81
2023/04/29 09:53:05;;;;;;;16.23;6.30;;;;;;;;;;4379883;32;317708;-81
2023/04/29 09:55:34;;;;;;;11.60;4.77;;;;;;;;;;4367446;32;318129;-80
2023/04/29 09:58:01;;;;;;;9.00;4.80;;;;;;;;;;4379080;32;318059;-81
2023/04/29 10:00:32;;;;;;;11.07;5.10;;;;;;;;;;4366319;32;317226;-80
2023/04/29 10:03:01;;;;;;;9.70;4.87;;;;;;;;;;4378667;32;317654;-79
2023/04/29 10:05:29;;;;;;;10.87;6.07;;;;;;;;;;4370137;32;317410;-79
2023/04/29 10:07:57;;;;;;;20.40;8.70;;;;;;;;;;4381212;32;349843;-81
2023/04/29 10:10:25;;;;;;;12.50;7.03;;;;;;;;;;4363488;32;318789;-80
2023/04/29 10:12:55;;;;;;;20.37;9.30;;;;;;;;;;4379651;32;317628;-82
2023/04/29 10:15:29;;;;;;;20.50;10.47;;;;;;;;;;4369955;32;356201;-80
2023/04/29 10:18:02;;;;;;;10.13;5.33;;;;;;;;;;4373411;32;319619;-80
2023/04/29 10:20:30;;;;;;;7.07;4.37;;;;;;;;;;4365336;32;318161;-80
2023/04/29 10:22:58;;;;;;;11.77;4.73;;;;;;;;;;4380807;32;317222;-80
2023/04/29 10:25:26;;;;;;;11.53;5.87;;;;;;;;;;4369774;32;318923;-80
2023/04/29 10:27:56;;;;;;;8.57;4.90;;;;;;;;;;4373322;32;318363;-79
2023/04/29 10:30:23;;;;;;;7.27;4.63;;;;;;;;;;4370530;32;317333;-79
2023/04/29 10:32:51;;;;;;;9.30;4.73;;;;;;;;;;4371091;32;316410;-80
2023/04/29 10:35:24;;;;;;;8.93;4.70;;;;;;;;;;4380325;32;316680;-79
2023/04/29 10:37:51;;;;;;;20.17;6.30;;;;;;;;;;4365926;32;417101;-80
2023/04/29 10:40:23;;;;;;;10.77;4.03;;;;;;;;;;4378496;32;318206;-81
2023/04/29 10:42:51;;;;;;;13.27;5.03;;;;;;;;;;4368904;32;418697;-79
2023/04/29 10:45:25;;;;;;;10.00;3.97;;;;;;;;;;4372139;32;318143;-83
2023/04/29 10:48:12;;;;;;;6.13;3.73;;;;;;;;;;4372513;32;417931;-83
2023/04/29 10:51:10;;;;;;;9.47;4.97;;;;;;;;;;4370693;32;317032;-82
2023/04/29 10:54:03;;;;;;;9.60;3.70;;;;;;;;;;4363931;32;316727;-79
2023/04/29 10:56:48;;;;;;;15.20;4.60;;;;;;;;;;4364883;32;316775;-80
2023/04/29 10:59:16;;;;;;;7.73;5.47;;;;;;;;;;4372812;32;318666;-79
2023/04/29 11:01:54;;;;;;;16.07;5.10;;;;;;;;;;4366566;32;317165;-79
2023/04/29 11:04:22;;;;;;;10.07;4.47;;;;;;;;;;4367924;32;317527;-79
2023/04/29 11:06:54;;;;;;;15.47;4.20;;;;;;;;;;4380741;32;317599;-79
2023/04/29 11:09:21;;;;;;;13.90;6.40;;;;;;;;;;4369277;32;318279;-80
2023/04/29 11:11:57;;;;;;;22.03;11.57;;;;;;;;;;4375416;32;318235;-81
2023/04/29 11:14:26;;;;;;;11.67;5.60;;;;;;;;;;4360671;32;319638;-81
2023/04/29 11:16:57;;;;;;;9.93;4.80;;;;;;;;;;4378869;32;318205;-80
2023/04/29 11:19:27;;;;;;;15.27;9.27;;;;;;;;;;4344820;32;336749;-79
2023/04/29 11:22:13;;;;;;;14.30;5.13;;;;;;;;;;4372342;32;318197;-75
2023/04/29 11:24:59;;;;;;;11.80;6.23;;;;;;;;;;4353346;32;317804;-75
2023/04/29 11:27:30;;;;;;;15.33;5.83;;;;;;;;;;4343013;32;317669;-77
2023/04/29 11:29:58;;;;;;;12.03;6.47;;;;;;;;;;4361363;32;318568;-78
2023/04/29 11:32:27;;;;;;;10.87;6.80;;;;;;;;;;4357154;32;318321;-78
2023/04/29 11:34:56;;;;;;;14.50;5.03;;;;;;;;;;4367844;32;318106;-77
2023/04/29 11:37:24;;;;;;;16.27;4.97;;;;;;;;;;4356212;32;317851;-80
2023/04/29 11:39:52;;;;;;;13.80;4.73;;;;;;;;;;4368026;32;317555;-79
2023/04/29 11:42:22;;;;;;;9.57;4.10;;;;;;;;;;4366852;32;317762;-78
2023/04/29 11:44:53;;;;;;;13.30;6.77;;;;;;;;;;4354075;32;417856;-78
2023/04/29 11:47:21;;;;;;;12.90;7.00;;;;;;;;;;4357969;32;318401;-80
2023/04/29 11:49:49;;;;;;;15.97;5.33;;;;;;;;;;4367492;32;317774;-78
2023/04/29 11:52:16;;;;;;;9.40;4.57;;;;;;;;;;4366524;32;318772;-79
2023/04/29 11:54:43;;;;;;;9.40;5.43;;;;;;;;;;4357806;32;317150;-79
2023/04/29 11:57:11;;;;;;;13.03;4.13;;;;;;;;;;4367840;32;317522;-80
2023/04/29 11:59:38;;;;;;;13.60;5.40;;;;;;;;;;4356193;32;340233;-78
2023/04/29 12:02:07;;;;;;;20.70;6.53;;;;;;;;;;4366444;32;318092;-80
2023/04/29 12:04:34;;;;;;;9.60;4.70;;;;;;;;;;4363518;32;318137;-78
2023/04/29 12:07:03;;;;;;;11.80;5.93;;;;;;;;;;4381519;32;316564;-78
2023/04/29 12:09:41;;;;;;;14.67;6.63;;;;;;;;;;4363452;32;349692;-79
2023/04/29 12:12:08;;;;;;;12.07;7.03;;;;;;;;;;4380873;32;318217;-79
2023/04/29 12:14:35;;;;;;;14.70;6.27;;;;;;;;;;4371908;32;318657;-82
2023/04/29 12:17:02;;;;;;;13.67;7.30;;;;;;;;;;4381181;32;317575;-78
2023/04/29 12:19:29;;;;;;;12.13;6.20;;;;;;;;;;4371998;32;353980;-78
2023/04/29 12:21:59;;;;;;;16.30;6.20;;;;;;;;;;4382620;32;318143;-78
2023/04/29 12:24:27;;;;;;;9.77;5.27;;;;;;;;;;4372752;32;318392;-78
2023/04/29 12:26:58;;;;;;;17.23;9.97;;;;;;;;;;4381871;32;316791;-80
2023/04/29 12:29:26;;;;;;;12.97;7.37;;;;;;;;;;4359130;32;318653;-81
2023/04/29 12:31:53;;;;;;;13.13;6.47;;;;;;;;;;4382733;32;317368;-81
2023/04/29 12:34:25;;;;;;;15.60;7.40;;;;;;;;;;4372605;32;317848;-78
2023/04/29 12:36:55;;;;;;;14.47;7.37;;;;;;;;;;4380475;32;351571;-79
2023/04/29 12:39:22;;;;;;;6.67;4.00;;;;;;;;;;4372323;32;318216;-78
2023/04/29 12:41:57;;;;;;;8.43;4.27;;;;;;;;;;4382447;32;317239;-78
2023/04/29 12:44:24;;;;;;;12.17;4.67;;;;;;;;;;4372875;32;317156;-81
2023/04/29 12:46:52;;;;;;;21.00;5.87;;;;;;;;;;4382754;32;317856;-79
2023/04/29 12:49:20;;;;;;;16.80;9.53;;;;;;;;;;4382082;32;318157;-78
2023/04/29 12:51:47;;;;;;;20.20;11.07;;;;;;;;;;4369672;32;418890;-78
2023/04/29 12:54:14;;;;;;;20.73;11.05;;;;;;;;;;4382214;32;319343;-79
2023/04/29 12:56:40;;;;;;;16.92;8.70;;;;;;;;;;4371242;32;319559;-77
2023/04/29 12:59:10;;;;;;;19.10;8.77;;;;;;;;;;4381685;32;317551;-78
2023/04/29 13:01:37;;;;;;;9.53;5.90;;;;;;;;;;4371441;32;347290;-79
2023/04/29 13:04:07;;;;;;;17.00;6.63;;;;;;;;;;4382404;32;316641;-80
2023/04/29 13:06:38;;;;;;;13.43;5.53;;;;;;;;;;4372424;32;318454;-77
2023/04/29 13:09:06;;;;;;;17.83;8.33;;;;;;;;;;4382080;32;318383;-80
2023/04/29 13:11:32;;;;;;;12.67;5.93;;;;;;;;;;4371184;32;317897;-79
2023/04/29 13:13:59;;;;;;;10.63;5.40;;;;;;;;;;4381120;32;318269;-81
2023/04/29 13:16:27;;;;;;;8.03;3.70;;;;;;;;;;4371953;32;318246;-78
2023/04/29 13:18:54;;;;;;;6.57;3.50;;;;;;;;;;4375906;32;316950;-81
2023/04/29 13:21:21;;;;;;;13.00;4.00;;;;;;;;;;4372241;32;317286;-78
2023/04/29 13:23:49;;;;;;;11.93;4.40;;;;;;;;;;4381116;32;317680;-81
2023/04/29 13:26:17;;;;;;;10.13;3.62;;;;;;;;;;4380975;32;318499;-78
2023/04/29 13:28:43;;;;;;;10.55;4.50;;;;;;;;;;4372390;32;318170;-79
2023/04/29 13:31:10;;;;;;;10.80;4.07;;;;;;;;;;4380727;32;318239;-78
2023/04/29 13:33:38;;;;;;;8.18;4.20;;;;;;;;;;4370973;32;318107;-79
2023/04/29 13:36:06;;;;;;;9.95;5.47;;;;;;;;;;4380822;32;317159;-80
2023/04/29 13:38:33;;;;;;;17.95;9.77;;;;;;;;;;4371627;32;317394;-79
2023/04/29 13:41:00;;;;;;;11.23;4.75;;;;;;;;;;4381846;32;317579;-77
2023/04/29 13:43:26;;;;;;;6.30;3.90;;;;;;;;;;4370915;32;318530;-78
2023/04/29 13:45:54;;;;;;;10.02;4.70;;;;;;;;;;4380767;32;316769;-78
2023/04/29 13:48:22;;;;;;;12.37;6.07;;;;;;;;;;4362831;32;318072;-78
2023/04/29 13:50:50;;;;;;;15.27;6.45;;;;;;;;;;4367957;32;318195;-78
2023/04/29 13:53:17;;;;;;;12.67;5.37;;;;;;;;;;4381348;32;318035;-79
2023/04/29 13:55:44;;;;;;;14.45;5.57;;;;;;;;;;4372094;32;318440;-78
2023/04/29 13:58:12;;;;;;;9.55;5.90;;;;;;;;;;4381881;32;318117;-80
2023/04/29 14:00:44;;;;;;;11.57;5.87;;;;;;;;;;4364122;32;315960;-78
2023/04/29 14:03:11;;;;;;;14.13;5.50;;;;;;;;;;4382914;32;317842;-80
2023/04/29 14:05:38;;;;;;;12.23;5.90;;;;;;;;;;4374694;32;318083;-79
2023/04/29 14:08:06;;;;;;;12.05;6.97;;;;;;;;;;4384005;32;318234;-78
2023/04/29 14:10:33;;;;;;;13.77;8.05;;;;;;;;;;4374684;32;318269;-79
2023/04/29 14:13:00;;;;;;;12.70;7.12;;;;;;;;;;4384590;32;318320;-79
2023/04/29 14:15:27;;;;;;;18.50;7.62;;;;;;;;;;4374737;32;318330;-78
2023/04/29 14:17:53;;;;;;;14.68;8.45;;;;;;;;;;4367865;32;317902;-78
2023/04/29 14:20:20;;;;;;;12.68;7.00;;;;;;;;;;4357410;32;318659;-79